Time;durP1;ratioP1;P1;durP2;ratioP2;P2;SDS_P1;SDS_P2;PMS_P1;PMS_P2;Temp;Humidity;BMP_temperature;BMP_pressure;BME280_temperature;BME280_humidity;BME280_pressure;Samples;Min_cycle;Max_cycle;Signal;HPM_P1;HPM_P2
2021/12/18 00:00:32;;;;;;;2.98;2.77;;;;;;;;;;1799731;79;20843;-69
2021/12/18 00:02:58;;;;;;;3.30;2.90;;;;;;;;;;1800472;79;21253;-68
2021/12/18 00:05:24;;;;;;;3.22;2.92;;;;;;;;;;1802622;78;21401;-68
2021/12/18 00:07:50;;;;;;;3.25;2.95;;;;;;;;;;1806371;79;20930;-68
2021/12/18 00:10:20;;;;;;;3.70;3.40;;;;;;;;;;1801597;79;21012;-68
2021/12/18 00:12:49;;;;;;;3.40;3.10;;;;;;;;;;1767216;80;21449;-69
2021/12/18 00:15:13;;;;;;;4.10;3.70;;;;;;;;;;1760971;81;21864;-69
2021/12/18 00:17:41;;;;;;;4.33;3.92;;;;;;;;;;1729190;82;21464;-69
2021/12/18 00:20:08;;;;;;;4.78;4.37;;;;;;;;;;1728674;81;21074;-68
2021/12/18 00:22:34;;;;;;;5.45;4.95;;;;;;;;;;1764926;80;20909;-68
2021/12/18 00:25:00;;;;;;;4.25;3.85;;;;;;;;;;1762100;80;20923;-69
2021/12/18 00:27:27;;;;;;;5.28;4.50;;;;;;;;;;1728060;82;21949;-69
2021/12/18 00:29:53;;;;;;;4.08;3.50;;;;;;;;;;1767362;80;20939;-68
2021/12/18 00:32:19;;;;;;;3.77;2.90;;;;;;;;;;1760895;80;20931;-68
2021/12/18 00:34:45;;;;;;;4.22;3.50;;;;;;;;;;1762587;80;20977;-68
2021/12/18 00:37:11;;;;;;;4.05;3.67;;;;;;;;;;1728465;82;20930;-69
2021/12/18 00:39:44;;;;;;;3.65;3.10;;;;;;;;;;1764719;80;21785;-69
2021/12/18 00:44:47;;;;;;;1.95;1.32;;;;;;;;;;1698894;80;21036;-68
2021/12/18 00:47:13;;;;;;;1.00;0.90;;;;;;;;;;1761687;80;21524;-68
2021/12/18 00:49:39;;;;;;;1.05;0.70;;;;;;;;;;1727666;81;20954;-68
2021/12/18 00:52:05;;;;;;;1.32;0.90;;;;;;;;;;1733887;81;21573;-68
2021/12/18 00:54:35;;;;;;;3.70;0.80;;;;;;;;;;1731019;82;20938;-70
2021/12/18 00:57:02;;;;;;;2.65;1.07;;;;;;;;;;1723541;82;21008;-70
2021/12/18 00:59:29;;;;;;;0.93;0.72;;;;;;;;;;1737228;81;20987;-70
2021/12/18 01:01:55;;;;;;;1.35;0.70;;;;;;;;;;1806175;78;20985;-70
2021/12/18 01:04:21;;;;;;;0.80;0.80;;;;;;;;;;1801376;78;21119;-69
2021/12/18 01:06:48;;;;;;;1.55;0.80;;;;;;;;;;1798891;78;20969;-69
2021/12/18 01:09:15;;;;;;;0.68;0.57;;;;;;;;;;1770771;80;21460;-67
2021/12/18 01:11:45;;;;;;;0.50;0.50;;;;;;;;;;1797137;78;21485;-68
2021/12/18 01:22:45;;;;;;;0.70;0.70;;;;;;;;;;1806157;78;21016;-68
2021/12/18 01:25:09;;;;;;;1.75;0.80;;;;;;;;;;1798329;78;21014;-69
2021/12/18 01:27:35;;;;;;;2.40;1.07;;;;;;;;;;1799752;78;21067;-68
2021/12/18 01:30:08;;;;;;;2.52;1.30;;;;;;;;;;1809287;78;20892;-68
2021/12/18 01:32:34;;;;;;;2.10;1.57;;;;;;;;;;1805328;78;21026;-68
2021/12/18 01:35:01;;;;;;;2.00;1.45;;;;;;;;;;1802836;78;20890;-68
2021/12/18 01:37:27;;;;;;;2.33;1.67;;;;;;;;;;1800058;78;20969;-68
2021/12/18 01:39:54;;;;;;;2.25;1.32;;;;;;;;;;1806712;78;21535;-68
2021/12/18 01:52:53;;;;;;;1.17;1.00;;;;;;;;;;1818295;78;20910;-68
2021/12/18 01:55:18;;;;;;;1.35;1.25;;;;;;;;;;1808961;78;21334;-68
2021/12/18 01:57:44;;;;;;;1.65;1.52;;;;;;;;;;1765285;80;20867;-67
2021/12/18 02:00:22;;;;;;;1.85;1.40;;;;;;;;;;1785413;78;21037;-68
2021/12/18 02:02:48;;;;;;;1.15;1.05;;;;;;;;;;1778639;79;21038;-68
2021/12/18 02:05:15;;;;;;;0.95;0.85;;;;;;;;;;1776302;79;20871;-67
2021/12/18 02:07:42;;;;;;;1.42;1.17;;;;;;;;;;1780426;79;21445;-68
2021/12/18 02:10:16;;;;;;;1.35;1.25;;;;;;;;;;1778277;79;20998;-68
2021/12/18 02:12:51;;;;;;;1.35;1.27;;;;;;;;;;1780620;79;21467;-68
2021/12/18 02:20:46;;;;;;;1.60;1.50;;;;;;;;;;1767667;79;21516;-67
2021/12/18 02:23:13;;;;;;;2.20;2.00;;;;;;;;;;1787963;79;21068;-68
2021/12/18 02:25:39;;;;;;;1.92;1.40;;;;;;;;;;1772804;79;21053;-68
2021/12/18 02:28:11;;;;;;;1.62;1.52;;;;;;;;;;1769009;79;21000;-68
2021/12/18 02:30:34;;;;;;;1.98;1.32;;;;;;;;;;1771072;79;21046;-68
2021/12/18 02:33:01;;;;;;;2.12;1.47;;;;;;;;;;1777361;79;21126;-68
2021/12/18 02:35:29;;;;;;;1.40;1.30;;;;;;;;;;1771485;79;20977;-68
2021/12/18 02:38:09;;;;;;;1.55;1.37;;;;;;;;;;1775360;79;20980;-68
2021/12/18 02:43:15;;;;;;;1.62;1.40;;;;;;;;;;1718398;79;21393;-68
2021/12/18 02:45:41;;;;;;;1.92;1.82;;;;;;;;;;1779037;79;21771;-68
2021/12/18 02:48:08;;;;;;;2.52;2.33;;;;;;;;;;1773798;79;20958;-69
2021/12/18 02:50:39;;;;;;;3.70;3.40;;;;;;;;;;1772744;79;20902;-69
2021/12/18 02:53:06;;;;;;;3.02;2.83;;;;;;;;;;1789234;79;20994;-69
2021/12/18 02:55:33;;;;;;;3.15;2.95;;;;;;;;;;1773245;79;20918;-69
2021/12/18 02:57:59;;;;;;;2.85;2.65;;;;;;;;;;1764825;78;21116;-69
2021/12/18 03:00:27;;;;;;;2.75;2.50;;;;;;;;;;1772504;79;20875;-69
2021/12/18 03:02:53;;;;;;;2.20;2.00;;;;;;;;;;1782667;79;20899;-69
2021/12/18 03:05:27;;;;;;;1.85;1.60;;;;;;;;;;1783774;79;20969;-69
2021/12/18 03:07:53;;;;;;;2.87;2.27;;;;;;;;;;1780833;79;21508;-69
2021/12/18 03:23:49;;;;;;;0.70;0.70;;;;;;;;;;1784470;79;21161;-67
2021/12/18 03:26:14;;;;;;;0.60;0.50;;;;;;;;;;1773067;79;20951;-67
2021/12/18 03:28:41;;;;;;;0.45;0.45;;;;;;;;;;1770511;79;20925;-68
2021/12/18 03:31:07;;;;;;;0.88;0.47;;;;;;;;;;1773158;79;21081;-68
2021/12/18 03:33:33;;;;;;;0.57;0.42;;;;;;;;;;1783172;79;20934;-68
2021/12/18 03:35:59;;;;;;;0.90;0.50;;;;;;;;;;1768928;79;21975;-68
2021/12/18 03:38:26;;;;;;;0.78;0.50;;;;;;;;;;1781561;79;20867;-68
2021/12/18 03:40:52;;;;;;;0.95;0.60;;;;;;;;;;1779775;79;20863;-68
2021/12/18 03:43:18;;;;;;;1.05;0.88;;;;;;;;;;1782567;79;20922;-68
2021/12/18 03:45:45;;;;;;;1.20;0.70;;;;;;;;;;1782270;79;20966;-68
2021/12/18 03:48:11;;;;;;;0.90;0.80;;;;;;;;;;1791281;79;21154;-68
2021/12/18 03:50:38;;;;;;;0.78;0.62;;;;;;;;;;1771850;79;21009;-69
2021/12/18 03:53:04;;;;;;;0.50;0.50;;;;;;;;;;1780411;79;20982;-68
2021/12/18 03:55:31;;;;;;;0.68;0.55;;;;;;;;;;1795113;79;20973;-68
2021/12/18 03:57:57;;;;;;;0.50;0.50;;;;;;;;;;1773318;79;21052;-67
2021/12/18 04:00:23;;;;;;;0.53;0.40;;;;;;;;;;1785288;78;21167;-68
2021/12/18 04:02:50;;;;;;;0.93;0.60;;;;;;;;;;1804753;78;20931;-67
2021/12/18 04:05:16;;;;;;;0.90;0.45;;;;;;;;;;1765356;79;21470;-68
2021/12/18 04:07:44;;;;;;;0.50;0.50;;;;;;;;;;1799496;78;20926;-67
2021/12/18 04:10:11;;;;;;;0.55;0.50;;;;;;;;;;1807631;78;20965;-67
2021/12/18 04:12:39;;;;;;;0.57;0.50;;;;;;;;;;1811208;78;21266;-68
2021/12/18 04:15:05;;;;;;;0.50;0.50;;;;;;;;;;1810135;78;20917;-68
2021/12/18 04:17:32;;;;;;;0.30;0.30;;;;;;;;;;1806577;78;20997;-68
2021/12/18 04:19:58;;;;;;;1.35;0.40;;;;;;;;;;1808612;78;20910;-68
2021/12/18 04:22:24;;;;;;;0.62;0.62;;;;;;;;;;1807183;78;20870;-68
2021/12/18 04:24:50;;;;;;;1.62;1.07;;;;;;;;;;1770499;80;21337;-67
2021/12/18 04:27:16;;;;;;;1.30;0.93;;;;;;;;;;1799801;78;21009;-69
2021/12/18 04:29:43;;;;;;;0.90;0.70;;;;;;;;;;1800139;78;21392;-69
2021/12/18 04:32:10;;;;;;;1.47;0.90;;;;;;;;;;1798288;78;20926;-69
2021/12/18 04:34:37;;;;;;;1.02;0.53;;;;;;;;;;1799316;78;21028;-70
2021/12/18 04:37:03;;;;;;;0.50;0.50;;;;;;;;;;1807126;78;21184;-70
2021/12/18 04:39:30;;;;;;;0.60;0.30;;;;;;;;;;1799965;78;21535;-70
2021/12/18 04:41:58;;;;;;;0.30;0.30;;;;;;;;;;1775734;80;20974;-69
2021/12/18 04:44:25;;;;;;;0.70;0.33;;;;;;;;;;1810535;78;20898;-70
2021/12/18 04:46:53;;;;;;;0.70;0.40;;;;;;;;;;1808904;78;20938;-70
2021/12/18 04:49:19;;;;;;;1.42;0.40;;;;;;;;;;1807904;78;21155;-67
2021/12/18 04:51:45;;;;;;;0.55;0.55;;;;;;;;;;1798588;78;20911;-68
2021/12/18 04:54:11;;;;;;;1.05;0.85;;;;;;;;;;1799544;78;21634;-70
2021/12/18 04:56:38;;;;;;;1.55;1.25;;;;;;;;;;1761733;80;21012;-71
2021/12/18 04:59:06;;;;;;;1.17;0.93;;;;;;;;;;1800568;78;21048;-71
2021/12/18 05:01:38;;;;;;;0.93;0.80;;;;;;;;;;1760177;80;21221;-70
2021/12/18 05:04:06;;;;;;;1.25;0.70;;;;;;;;;;1726438;82;20981;-70
2021/12/18 05:06:36;;;;;;;1.47;0.75;;;;;;;;;;1761897;80;21021;-70
2021/12/18 05:09:01;;;;;;;2.50;1.72;;;;;;;;;;1746497;82;20938;-70
2021/12/18 05:11:27;;;;;;;3.90;2.52;;;;;;;;;;1758904;80;21491;-68
2021/12/18 05:13:54;;;;;;;3.35;2.10;;;;;;;;;;1765450;80;21101;-72
2021/12/18 05:16:21;;;;;;;2.75;1.92;;;;;;;;;;1761770;80;21057;-70
2021/12/18 05:18:47;;;;;;;5.53;4.53;;;;;;;;;;1765475;80;21594;-71
2021/12/18 05:21:14;;;;;;;9.63;7.92;;;;;;;;;;1758233;80;20959;-72
2021/12/18 05:23:41;;;;;;;9.03;7.40;;;;;;;;;;1771449;80;20959;-69
2021/12/18 05:26:08;;;;;;;8.28;7.47;;;;;;;;;;1762437;80;21035;-70
2021/12/18 05:28:35;;;;;;;5.70;5.20;;;;;;;;;;1758102;80;21698;-69
2021/12/18 05:31:02;;;;;;;5.05;4.12;;;;;;;;;;1759477;80;20989;-71
2021/12/18 05:33:28;;;;;;;3.10;2.80;;;;;;;;;;1770546;80;21065;-71
2021/12/18 05:35:54;;;;;;;1.42;1.32;;;;;;;;;;1759466;80;21021;-70
2021/12/18 05:38:20;;;;;;;1.37;1.20;;;;;;;;;;1764830;80;21496;-71
2021/12/18 05:40:46;;;;;;;1.00;0.90;;;;;;;;;;1761386;80;20886;-70
2021/12/18 05:43:13;;;;;;;0.65;0.65;;;;;;;;;;1768292;80;20922;-68
2021/12/18 05:45:39;;;;;;;1.92;1.47;;;;;;;;;;1762678;80;20942;-66
2021/12/18 05:48:06;;;;;;;6.03;3.72;;;;;;;;;;1762241;80;20970;-71
2021/12/18 05:50:33;;;;;;;8.63;5.22;;;;;;;;;;1762458;80;21927;-70
2021/12/18 05:53:00;;;;;;;15.40;8.08;;;;;;;;;;1769840;80;20945;-70
2021/12/18 05:55:27;;;;;;;30.97;14.87;;;;;;;;;;1754294;80;20929;-70
2021/12/18 05:57:53;;;;;;;30.85;14.55;;;;;;;;;;1762222;80;20895;-71
2021/12/18 06:00:20;;;;;;;17.55;10.98;;;;;;;;;;1764373;80;20939;-71
2021/12/18 06:02:46;;;;;;;10.32;7.65;;;;;;;;;;1777210;80;21198;-70
2021/12/18 06:05:12;;;;;;;7.92;5.67;;;;;;;;;;1768520;79;20867;-69
2021/12/18 06:07:53;;;;;;;5.35;3.05;;;;;;;;;;1808588;78;20978;-69
2021/12/18 06:10:09;;;;;;;2.25;1.70;;;;;;;;;;1807562;78;20902;-71
2021/12/18 06:12:35;;;;;;;1.87;1.20;;;;;;;;;;1818003;78;20926;-72
2021/12/18 06:15:01;;;;;;;2.60;1.50;;;;;;;;;;1810402;78;21182;-65
2021/12/18 06:17:29;;;;;;;2.20;1.30;;;;;;;;;;1806361;78;20890;-70
2021/12/18 06:19:55;;;;;;;1.90;1.37;;;;;;;;;;1804016;78;20993;-69
2021/12/18 06:22:21;;;;;;;1.65;1.10;;;;;;;;;;1811244;78;20902;-72
2021/12/18 06:24:49;;;;;;;1.45;0.90;;;;;;;;;;1801002;78;20969;-72
2021/12/18 06:27:15;;;;;;;1.95;0.60;;;;;;;;;;1799039;78;21151;-70
2021/12/18 06:29:42;;;;;;;1.55;0.75;;;;;;;;;;1775707;80;20957;-70
2021/12/18 06:32:09;;;;;;;0.47;0.47;;;;;;;;;;1809931;78;21555;-71
2021/12/18 06:34:35;;;;;;;0.60;0.60;;;;;;;;;;1764664;79;20936;-70
2021/12/18 06:37:01;;;;;;;1.30;1.05;;;;;;;;;;1802597;78;20958;-70
2021/12/18 06:39:27;;;;;;;1.25;0.93;;;;;;;;;;1778386;80;21109;-71
2021/12/18 06:41:53;;;;;;;1.50;1.37;;;;;;;;;;1775071;80;21496;-70
2021/12/18 06:44:20;;;;;;;2.10;1.42;;;;;;;;;;1809666;78;20961;-72
2021/12/18 06:46:48;;;;;;;2.10;1.60;;;;;;;;;;1762247;80;20974;-71
2021/12/18 06:49:16;;;;;;;2.35;2.15;;;;;;;;;;1774028;79;20935;-70
2021/12/18 06:51:42;;;;;;;3.02;1.67;;;;;;;;;;1809864;78;21765;-69
2021/12/18 06:54:08;;;;;;;2.27;2.08;;;;;;;;;;1812478;78;20989;-70
2021/12/18 06:56:34;;;;;;;3.55;2.62;;;;;;;;;;1796264;78;21060;-70
2021/12/18 06:59:00;;;;;;;7.40;6.80;;;;;;;;;;1809090;78;20962;-70
2021/12/18 07:01:26;;;;;;;8.83;7.40;;;;;;;;;;1811413;78;20866;-71
2021/12/18 07:03:53;;;;;;;9.78;8.98;;;;;;;;;;1801320;78;21146;-70
2021/12/18 07:06:19;;;;;;;11.20;10.05;;;;;;;;;;1816748;78;21027;-70
2021/12/18 07:08:45;;;;;;;7.80;6.90;;;;;;;;;;1807812;78;20914;-72
2021/12/18 07:11:12;;;;;;;6.33;5.72;;;;;;;;;;1767384;80;21480;-69
2021/12/18 07:13:38;;;;;;;3.80;3.50;;;;;;;;;;1811747;78;21000;-67
2021/12/18 07:16:04;;;;;;;2.58;2.37;;;;;;;;;;1761657;80;21914;-65
2021/12/18 07:18:32;;;;;;;1.75;1.65;;;;;;;;;;1803617;78;20926;-67
2021/12/18 07:20:58;;;;;;;1.47;1.37;;;;;;;;;;1803354;78;21049;-67
2021/12/18 07:23:24;;;;;;;1.15;1.05;;;;;;;;;;1761726;80;20952;-67
2021/12/18 07:25:51;;;;;;;0.78;0.78;;;;;;;;;;1812312;78;20929;-67
2021/12/18 07:28:17;;;;;;;1.95;1.00;;;;;;;;;;1802404;78;21405;-65
2021/12/18 07:30:43;;;;;;;0.80;0.80;;;;;;;;;;1796453;78;21571;-67
2021/12/18 07:33:11;;;;;;;1.00;0.85;;;;;;;;;;1767876;80;20961;-72
2021/12/18 07:35:38;;;;;;;2.65;1.20;;;;;;;;;;1804096;78;20950;-67
2021/12/18 07:38:05;;;;;;;1.20;0.90;;;;;;;;;;1810215;78;21006;-71
2021/12/18 07:40:32;;;;;;;2.40;1.50;;;;;;;;;;1797696;78;21138;-68
2021/12/18 07:42:59;;;;;;;2.67;1.45;;;;;;;;;;1805480;78;21464;-70
2021/12/18 07:45:25;;;;;;;2.92;1.87;;;;;;;;;;1809801;78;20929;-68
2021/12/18 07:47:51;;;;;;;5.97;3.08;;;;;;;;;;1766410;80;20962;-66
2021/12/18 07:50:20;;;;;;;10.72;5.35;;;;;;;;;;1763744;79;20997;-71
2021/12/18 07:52:47;;;;;;;13.08;7.20;;;;;;;;;;1783082;80;21173;-66
2021/12/18 07:55:14;;;;;;;14.65;7.80;;;;;;;;;;1804024;78;20945;-67
2021/12/18 07:57:40;;;;;;;13.00;7.47;;;;;;;;;;1762716;80;20993;-68
2021/12/18 08:00:08;;;;;;;11.48;6.60;;;;;;;;;;1799210;78;21515;-69
2021/12/18 08:02:34;;;;;;;8.08;4.97;;;;;;;;;;1761874;80;21065;-69
2021/12/18 08:05:01;;;;;;;5.35;3.40;;;;;;;;;;1797727;78;21156;-69
2021/12/18 08:07:27;;;;;;;4.83;3.37;;;;;;;;;;1796146;78;20966;-67
2021/12/18 08:09:53;;;;;;;3.90;2.42;;;;;;;;;;1796849;78;20918;-68
2021/12/18 08:12:19;;;;;;;2.67;1.70;;;;;;;;;;1802246;78;20985;-69
2021/12/18 08:14:46;;;;;;;1.60;1.20;;;;;;;;;;1801931;78;20979;-72
2021/12/18 08:17:12;;;;;;;2.87;1.20;;;;;;;;;;1798237;78;21880;-66
2021/12/18 08:19:38;;;;;;;1.40;1.10;;;;;;;;;;1763720;79;20981;-67
2021/12/18 08:22:05;;;;;;;1.85;1.47;;;;;;;;;;1796723;78;21002;-71
2021/12/18 08:24:31;;;;;;;3.37;1.52;;;;;;;;;;1795695;78;21044;-68
2021/12/18 08:26:57;;;;;;;5.22;2.77;;;;;;;;;;1759752;80;20978;-67
2021/12/18 08:29:23;;;;;;;4.53;2.67;;;;;;;;;;1795184;78;21152;-69
2021/12/18 08:31:51;;;;;;;5.92;3.25;;;;;;;;;;1761999;79;21056;-70
2021/12/18 08:34:20;;;;;;;6.10;4.22;;;;;;;;;;1796435;78;21000;-68
2021/12/18 08:36:46;;;;;;;5.75;3.77;;;;;;;;;;1759425;80;21041;-67
2021/12/18 08:39:12;;;;;;;5.75;3.20;;;;;;;;;;1795680;78;20903;-67
2021/12/18 08:41:39;;;;;;;4.47;3.35;;;;;;;;;;1759234;80;21785;-68
2021/12/18 08:44:07;;;;;;;6.12;3.47;;;;;;;;;;1795421;78;21777;-66
2021/12/18 08:46:34;;;;;;;6.35;3.77;;;;;;;;;;1760249;80;20947;-65
2021/12/18 08:49:00;;;;;;;7.17;4.70;;;;;;;;;;1759773;79;20985;-66
2021/12/18 08:51:26;;;;;;;9.45;4.75;;;;;;;;;;1795251;78;21306;-67
2021/12/18 08:53:53;;;;;;;6.35;4.62;;;;;;;;;;1795462;78;21508;-67
2021/12/18 08:56:19;;;;;;;5.83;3.95;;;;;;;;;;1760043;80;21492;-67
2021/12/18 08:58:45;;;;;;;5.28;4.35;;;;;;;;;;1796101;78;20887;-67
2021/12/18 09:01:12;;;;;;;4.65;4.15;;;;;;;;;;1759315;80;21013;-64
2021/12/18 09:03:38;;;;;;;5.33;3.92;;;;;;;;;;1728134;81;21142;-68
2021/12/18 09:06:04;;;;;;;9.05;2.85;;;;;;;;;;1795795;78;21150;-69
2021/12/18 09:08:30;;;;;;;3.42;2.47;;;;;;;;;;1795527;78;21562;-70
2021/12/18 09:10:56;;;;;;;3.37;1.95;;;;;;;;;;1759999;80;20931;-70
2021/12/18 09:13:22;;;;;;;2.22;1.92;;;;;;;;;;1796103;78;21424;-67
2021/12/18 09:15:49;;;;;;;5.50;3.17;;;;;;;;;;1795684;78;21016;-68
2021/12/18 09:18:15;;;;;;;5.50;2.62;;;;;;;;;;1759682;80;21175;-69
2021/12/18 09:20:44;;;;;;;5.92;3.80;;;;;;;;;;1795936;78;21101;-67
2021/12/18 09:23:09;;;;;;;5.50;3.70;;;;;;;;;;1760596;79;21524;-68
2021/12/18 09:25:37;;;;;;;7.08;4.22;;;;;;;;;;1795876;78;21136;-62
2021/12/18 09:28:04;;;;;;;5.22;3.60;;;;;;;;;;1804553;78;20878;-71
2021/12/18 09:30:30;;;;;;;7.08;4.50;;;;;;;;;;1760795;80;21933;-67
2021/12/18 09:32:59;;;;;;;4.95;3.90;;;;;;;;;;1804466;78;20910;-69
2021/12/18 09:35:25;;;;;;;7.35;4.75;;;;;;;;;;1801072;78;21548;-70
2021/12/18 09:37:52;;;;;;;14.53;9.73;;;;;;;;;;1767824;80;21046;-70
2021/12/18 09:40:19;;;;;;;5.87;4.87;;;;;;;;;;1813686;78;21077;-66
2021/12/18 09:42:46;;;;;;;4.58;3.62;;;;;;;;;;1781180;80;21165;-65
2021/12/18 09:45:14;;;;;;;5.42;2.90;;;;;;;;;;1811596;78;21011;-67
2021/12/18 09:47:40;;;;;;;3.10;2.80;;;;;;;;;;1802268;78;21464;-65
2021/12/18 09:50:07;;;;;;;8.23;3.72;;;;;;;;;;1807276;78;21044;-65
2021/12/18 09:52:35;;;;;;;10.48;4.53;;;;;;;;;;1768415;80;20982;-67
2021/12/18 09:55:02;;;;;;;16.45;5.75;;;;;;;;;;1749674;80;22355;-67
2021/12/18 09:57:28;;;;;;;12.47;6.10;;;;;;;;;;1748066;81;21536;-64
2021/12/18 09:59:54;;;;;;;18.27;6.42;;;;;;;;;;1756405;80;21077;-65
2021/12/18 10:02:21;;;;;;;7.15;5.25;;;;;;;;;;1752120;80;21042;-68
2021/12/18 10:04:47;;;;;;;14.65;5.72;;;;;;;;;;1754281;80;20947;-68
2021/12/18 10:07:19;;;;;;;10.75;4.72;;;;;;;;;;1709253;83;21523;-67
2021/12/18 10:09:46;;;;;;;8.83;4.50;;;;;;;;;;1715123;82;21538;-66
2021/12/18 10:12:22;;;;;;;7.28;4.45;;;;;;;;;;1704993;83;21480;-64
2021/12/18 10:14:51;;;;;;;5.50;4.17;;;;;;;;;;1716312;83;20993;-66
2021/12/18 10:17:30;;;;;;;4.45;2.90;;;;;;;;;;1709378;83;21144;-67
2021/12/18 10:20:12;;;;;;;4.10;2.90;;;;;;;;;;1716772;82;21166;-65
2021/12/18 10:22:51;;;;;;;5.87;2.67;;;;;;;;;;1699319;84;21019;-66
2021/12/18 10:25:20;;;;;;;3.80;2.92;;;;;;;;;;1705204;82;21092;-65
2021/12/18 10:28:13;;;;;;;3.95;2.70;;;;;;;;;;1705855;82;20968;-70
2021/12/18 10:30:43;;;;;;;3.60;2.70;;;;;;;;;;1686478;83;20906;-68
2021/12/18 10:33:11;;;;;;;4.62;3.25;;;;;;;;;;1687732;82;21238;-66
2021/12/18 10:35:41;;;;;;;2.92;2.30;;;;;;;;;;1706567;82;21070;-66
2021/12/18 10:38:07;;;;;;;4.30;3.47;;;;;;;;;;1717713;83;20938;-69
2021/12/18 10:40:45;;;;;;;3.75;3.02;;;;;;;;;;1707702;82;20963;-68
2021/12/18 10:43:12;;;;;;;5.33;2.87;;;;;;;;;;1723643;82;21007;-66
2021/12/18 10:45:39;;;;;;;3.47;2.65;;;;;;;;;;1718430;82;21273;-68
2021/12/18 10:48:08;;;;;;;4.45;2.35;;;;;;;;;;1716795;83;21468;-70
2021/12/18 10:50:46;;;;;;;4.55;2.55;;;;;;;;;;1709888;82;21011;-69
2021/12/18 10:53:29;;;;;;;3.02;2.75;;;;;;;;;;1697378;84;20963;-68
2021/12/18 10:55:56;;;;;;;2.98;2.47;;;;;;;;;;1703129;82;21564;-70
2021/12/18 10:58:35;;;;;;;3.67;2.60;;;;;;;;;;1717277;82;21958;-59
2021/12/18 11:01:07;;;;;;;3.72;3.00;;;;;;;;;;1708239;83;20912;-64
2021/12/18 11:03:35;;;;;;;3.12;2.58;;;;;;;;;;1733852;80;20898;-69
2021/12/18 11:06:20;;;;;;;4.80;3.25;;;;;;;;;;1736751;81;21050;-62
2021/12/18 11:08:59;;;;;;;3.60;2.87;;;;;;;;;;1777722;80;20887;-66
2021/12/18 11:14:17;;;;;;;3.08;2.30;;;;;;;;;;1769575;80;21481;-67
2021/12/18 11:16:46;;;;;;;3.62;2.37;;;;;;;;;;1774621;80;20940;-64
2021/12/18 11:19:16;;;;;;;2.52;2.20;;;;;;;;;;1771140;80;20957;-69
2021/12/18 11:21:45;;;;;;;4.58;2.72;;;;;;;;;;1769325;80;22328;-68
2021/12/18 11:24:11;;;;;;;5.10;2.20;;;;;;;;;;1783363;80;21792;-65
2021/12/18 11:26:59;;;;;;;2.72;2.30;;;;;;;;;;1768420;80;20914;-64
2021/12/18 11:29:44;;;;;;;2.47;2.15;;;;;;;;;;1774582;80;21411;-63
2021/12/18 11:32:11;;;;;;;4.40;2.98;;;;;;;;;;1720521;81;20978;-70
2021/12/18 11:34:38;;;;;;;4.35;2.50;;;;;;;;;;1720144;82;20895;-61
2021/12/18 11:37:06;;;;;;;2.90;2.15;;;;;;;;;;1716453;81;21166;-68
2021/12/18 11:39:33;;;;;;;7.33;5.00;;;;;;;;;;1771213;80;20909;-70
2021/12/18 11:42:01;;;;;;;6.90;5.12;;;;;;;;;;1736919;81;20990;-67
2021/12/18 11:44:35;;;;;;;4.70;3.33;;;;;;;;;;1767412;80;20984;-66
2021/12/18 11:47:24;;;;;;;3.77;3.02;;;;;;;;;;1763500;80;20924;-65
2021/12/18 11:49:50;;;;;;;3.90;2.75;;;;;;;;;;1719441;81;21833;-65
2021/12/18 11:52:16;;;;;;;3.52;2.15;;;;;;;;;;1779004;80;20934;-65
2021/12/18 11:54:45;;;;;;;3.00;2.20;;;;;;;;;;1777564;80;21441;-64
2021/12/18 11:57:12;;;;;;;4.17;3.20;;;;;;;;;;1721502;82;20945;-67
2021/12/18 11:59:43;;;;;;;3.85;2.75;;;;;;;;;;1719602;81;20985;-66
2021/12/18 12:02:10;;;;;;;2.58;2.02;;;;;;;;;;1709963;81;21166;-64
2021/12/18 12:05:00;;;;;;;2.45;1.87;;;;;;;;;;1740832;81;20914;-64
2021/12/18 12:07:27;;;;;;;4.33;2.08;;;;;;;;;;1742517;81;20937;-65
2021/12/18 12:10:24;;;;;;;3.37;2.02;;;;;;;;;;1696494;83;47920;-64
2021/12/18 12:12:51;;;;;;;3.15;2.22;;;;;;;;;;1706735;83;20993;-66
2021/12/18 12:15:18;;;;;;;4.67;2.25;;;;;;;;;;1706049;83;21192;-66
2021/12/18 12:17:56;;;;;;;3.55;2.35;;;;;;;;;;1697792;83;21148;-65
2021/12/18 12:20:40;;;;;;;2.87;2.22;;;;;;;;;;1691588;83;20922;-69
2021/12/18 12:23:07;;;;;;;4.72;2.25;;;;;;;;;;1700414;83;20965;-63
2021/12/18 12:25:45;;;;;;;3.58;2.17;;;;;;;;;;1695175;83;20872;-61
2021/12/18 12:28:20;;;;;;;3.83;2.58;;;;;;;;;;1727573;81;21140;-63
2021/12/18 12:30:49;;;;;;;;;;;;;;;;;;1742776;81;21224;-63
2021/12/18 12:33:33;;;;;;;4.12;2.90;;;;;;;;;;1735403;82;20122;-63
2021/12/18 12:36:03;;;;;;;5.67;2.65;;;;;;;;;;1709596;83;21029;-63
2021/12/18 12:38:45;;;;;;;4.62;2.95;;;;;;;;;;1744798;81;21018;-60
2021/12/18 12:41:31;;;;;;;3.50;2.72;;;;;;;;;;1666624;83;21177;-60
2021/12/18 12:44:03;;;;;;;3.42;2.67;;;;;;;;;;1745452;81;20993;-60
2021/12/18 12:46:29;;;;;;;4.12;2.50;;;;;;;;;;1743322;81;20939;-60
2021/12/18 12:49:08;;;;;;;3.37;2.50;;;;;;;;;;1737219;81;21025;-60
2021/12/18 12:52:03;;;;;;;3.15;2.40;;;;;;;;;;1741660;81;20917;-62
2021/12/18 12:54:57;;;;;;;4.15;3.15;;;;;;;;;;1749023;81;21857;-65
2021/12/18 12:57:30;;;;;;;3.98;2.52;;;;;;;;;;1730721;81;20927;-66
2021/12/18 13:00:05;;;;;;;11.97;8.08;;;;;;;;;;1743209;81;20985;-62
2021/12/18 13:02:33;;;;;;;10.60;4.87;;;;;;;;;;1738635;81;26617;-61
2021/12/18 13:05:06;;;;;;;12.75;4.45;;;;;;;;;;1762994;79;20935;-59
2021/12/18 13:07:33;;;;;;;13.05;5.47;;;;;;;;;;1778625;80;21163;-60
2021/12/18 13:09:59;;;;;;;8.55;4.05;;;;;;;;;;1730552;81;21037;-59
2021/12/18 13:12:25;;;;;;;15.23;4.65;;;;;;;;;;1742169;80;21526;-59
2021/12/18 13:14:52;;;;;;;10.82;4.47;;;;;;;;;;1748792;81;21034;-60
2021/12/18 13:17:22;;;;;;;6.70;3.40;;;;;;;;;;1775089;80;20961;-60
2021/12/18 13:20:01;;;;;;;8.08;4.10;;;;;;;;;;1780019;79;21025;-59
2021/12/18 13:22:36;;;;;;;7.87;3.62;;;;;;;;;;1782125;80;20952;-59
2021/12/18 13:25:11;;;;;;;6.12;3.72;;;;;;;;;;1778352;80;20928;-60
2021/12/18 13:27:39;;;;;;;7.40;3.25;;;;;;;;;;1771497;80;20942;-66
2021/12/18 13:30:12;;;;;;;5.25;2.98;;;;;;;;;;1779292;80;21510;-62
2021/12/18 13:32:52;;;;;;;5.35;3.05;;;;;;;;;;1768892;80;21106;-61
2021/12/18 13:35:18;;;;;;;6.37;2.83;;;;;;;;;;1766504;79;21468;-61
2021/12/18 13:38:07;;;;;;;2.58;2.30;;;;;;;;;;1778043;80;22421;-60
2021/12/18 13:40:37;;;;;;;4.80;2.87;;;;;;;;;;1780180;80;20894;-59
2021/12/18 13:43:09;;;;;;;5.05;3.00;;;;;;;;;;1786595;80;21592;-60
2021/12/18 13:45:58;;;;;;;3.72;3.10;;;;;;;;;;1777227;80;21129;-61
2021/12/18 13:48:27;;;;;;;4.25;3.25;;;;;;;;;;1769663;80;20902;-61
2021/12/18 13:50:57;;;;;;;3.95;3.12;;;;;;;;;;1779615;79;21504;-60
2021/12/18 13:53:23;;;;;;;4.87;3.37;;;;;;;;;;1776979;80;20896;-59
2021/12/18 13:55:57;;;;;;;5.12;3.37;;;;;;;;;;1771889;80;20943;-60
2021/12/18 13:58:26;;;;;;;5.28;3.08;;;;;;;;;;1765958;80;21510;-59
2021/12/18 14:01:13;;;;;;;4.83;3.00;;;;;;;;;;1771778;80;21012;-59
2021/12/18 14:03:45;;;;;;;5.50;3.47;;;;;;;;;;1769241;80;21493;-59
2021/12/18 14:06:24;;;;;;;6.50;3.45;;;;;;;;;;1764677;79;21017;-59
2021/12/18 14:08:57;;;;;;;5.95;4.22;;;;;;;;;;1764648;80;20973;-59
2021/12/18 14:11:31;;;;;;;5.12;3.52;;;;;;;;;;1750371;80;21169;-59
2021/12/18 14:13:59;;;;;;;5.33;3.35;;;;;;;;;;1800487;78;20898;-60
2021/12/18 14:16:26;;;;;;;6.45;3.77;;;;;;;;;;1801848;78;21417;-59
2021/12/18 14:18:56;;;;;;;7.78;3.98;;;;;;;;;;1805468;78;20989;-59
2021/12/18 14:21:33;;;;;;;6.28;3.83;;;;;;;;;;1796681;78;21527;-60
2021/12/18 14:24:00;;;;;;;5.87;3.58;;;;;;;;;;1796203;78;21137;-60
2021/12/18 14:26:27;;;;;;;6.67;3.95;;;;;;;;;;1796076;78;20910;-60
2021/12/18 14:28:56;;;;;;;17.55;11.10;;;;;;;;;;1799213;78;21001;-61
2021/12/18 14:31:34;;;;;;;9.25;5.95;;;;;;;;;;1795927;78;20938;-60
2021/12/18 14:34:12;;;;;;;6.53;4.65;;;;;;;;;;1757926;79;20926;-60
2021/12/18 14:36:56;;;;;;;5.85;4.47;;;;;;;;;;1799386;78;21229;-60
2021/12/18 14:39:31;;;;;;;6.22;4.00;;;;;;;;;;1792628;78;21472;-60
2021/12/18 14:42:14;;;;;;;4.03;3.62;;;;;;;;;;1795581;78;20978;-60
2021/12/18 14:44:50;;;;;;;8.80;5.70;;;;;;;;;;1796371;78;21006;-60
2021/12/18 14:47:19;;;;;;;10.08;6.35;;;;;;;;;;1795585;78;20994;-61
2021/12/18 14:50:11;;;;;;;8.98;6.00;;;;;;;;;;1797167;78;21141;-61
2021/12/18 14:53:08;;;;;;;6.65;5.10;;;;;;;;;;1796348;78;20986;-62
2021/12/18 14:55:38;;;;;;;6.78;4.25;;;;;;;;;;1791560;78;20871;-63
2021/12/18 14:58:07;;;;;;;9.10;5.47;;;;;;;;;;1797019;78;21444;-61
2021/12/18 15:00:57;;;;;;;6.83;4.85;;;;;;;;;;1795120;78;21508;-62
2021/12/18 15:03:32;;;;;;;8.48;5.33;;;;;;;;;;1795443;78;21230;-61
2021/12/18 15:06:26;;;;;;;7.40;4.60;;;;;;;;;;1805399;78;20973;-61
2021/12/18 15:09:00;;;;;;;5.53;4.42;;;;;;;;;;1804573;78;20952;-62
2021/12/18 15:11:39;;;;;;;7.35;4.20;;;;;;;;;;1769345;80;21431;-59
2021/12/18 15:14:11;;;;;;;5.78;4.70;;;;;;;;;;1736688;81;20955;-60
2021/12/18 15:16:39;;;;;;;10.13;4.60;;;;;;;;;;1744242;81;21184;-60
2021/12/18 15:19:11;;;;;;;6.40;4.10;;;;;;;;;;1748970;81;20926;-60
2021/12/18 15:21:39;;;;;;;6.65;4.67;;;;;;;;;;1744768;81;20991;-61
2021/12/18 15:24:06;;;;;;;5.47;4.22;;;;;;;;;;1785769;80;20989;-61
2021/12/18 15:26:32;;;;;;;5.80;4.40;;;;;;;;;;1740023;81;21009;-61
2021/12/18 15:28:59;;;;;;;10.30;6.42;;;;;;;;;;1748029;81;21546;-60
2021/12/18 15:31:25;;;;;;;7.97;4.95;;;;;;;;;;1774768;79;20883;-59
2021/12/18 15:33:52;;;;;;;7.20;5.00;;;;;;;;;;1742912;81;22319;-60
2021/12/18 15:36:19;;;;;;;5.95;4.30;;;;;;;;;;1732883;81;20929;-61
2021/12/18 15:38:45;;;;;;;8.63;5.78;;;;;;;;;;1748578;81;20917;-61
2021/12/18 15:41:13;;;;;;;5.08;4.15;;;;;;;;;;1733872;81;21490;-61